createdAt,value
2023-03-21T00:01:15.891Z,5.90
2023-03-21T00:03:46.922Z,4.77
2023-03-21T00:06:15.214Z,5.70
2023-03-21T00:08:43.244Z,6.47
2023-03-21T00:11:14.378Z,3.97
2023-03-21T00:13:43.416Z,5.80
2023-03-21T00:16:17.957Z,3.87
2023-03-21T00:18:52.666Z,5.00
2023-03-21T00:21:43.874Z,8.30
2023-03-21T00:24:09.989Z,6.20
2023-03-21T00:26:38.611Z,6.07
2023-03-21T00:29:06.615Z,4.50
2023-03-21T00:31:34.725Z,6.90
2023-03-21T00:34:04.213Z,4.67
2023-03-21T00:36:32.644Z,5.83
2023-03-21T00:39:01.518Z,4.90
2023-03-21T00:41:41.878Z,5.73
2023-03-21T00:44:11.992Z,4.87
2023-03-21T00:46:49.016Z,4.83
2023-03-21T00:49:24.219Z,6.33
2023-03-21T00:51:53.289Z,5.10
2023-03-21T00:54:21.493Z,5.50
2023-03-21T00:56:49.843Z,4.10
2023-03-21T00:59:17.828Z,4.40
2023-03-21T01:01:46.826Z,6.70
2023-03-21T01:04:17.199Z,4.73
2023-03-21T01:06:46.671Z,5.30
2023-03-21T01:09:16.571Z,5.60
2023-03-21T01:11:44.741Z,7.00
2023-03-21T01:14:23.377Z,6.10
2023-03-21T01:16:51.965Z,6.77
2023-03-21T01:19:37.891Z,5.60
2023-03-21T01:22:10.027Z,6.90
2023-03-21T01:24:46.825Z,5.97
2023-03-21T01:27:20.219Z,7.17
2023-03-21T01:29:48.172Z,6.47
2023-03-21T01:32:16.827Z,9.30
2023-03-21T01:34:45.186Z,7.70
2023-03-21T01:37:14.874Z,5.90
2023-03-21T01:39:42.849Z,8.53
2023-03-21T01:42:13.252Z,8.33
2023-03-21T01:44:53.887Z,7.77
2023-03-21T01:47:22.310Z,6.20
2023-03-21T01:49:51.654Z,9.20
2023-03-21T01:52:36.023Z,7.67
2023-03-21T01:55:07.404Z,8.10
2023-03-21T01:57:43.835Z,7.40
2023-03-21T02:00:16.621Z,5.53
2023-03-21T02:02:58.194Z,7.53
2023-03-21T02:05:34.256Z,5.47
2023-03-21T02:08:03.553Z,6.90
2023-03-21T02:10:32.456Z,8.10
2023-03-21T02:13:09.613Z,5.83
2023-03-21T02:15:38.514Z,7.30
2023-03-21T02:18:09.289Z,7.67
2023-03-21T02:20:51.393Z,5.83
2023-03-21T02:23:38.635Z,7.40
2023-03-21T02:27:04.143Z,6.47
2023-03-21T02:29:48.907Z,5.57
2023-03-21T02:32:31.504Z,7.77
2023-03-21T02:35:41.478Z,6.90
2023-03-21T02:38:15.466Z,6.13
2023-03-21T02:40:45.203Z,8.20
2023-03-21T02:43:23.015Z,6.80
2023-03-21T02:45:54.335Z,6.10
2023-03-21T02:48:29.508Z,6.87
2023-03-21T02:51:00.470Z,10.00
2023-03-21T02:53:31.747Z,8.00
2023-03-21T02:55:59.780Z,7.73
2023-03-21T02:58:28.124Z,6.97
2023-03-21T03:00:56.394Z,9.83
2023-03-21T03:03:33.959Z,6.97
2023-03-21T03:06:02.152Z,8.70
2023-03-21T03:08:43.232Z,9.93
2023-03-21T03:11:24.078Z,14.00
2023-03-21T03:14:21.029Z,14.60
2023-03-21T03:16:52.054Z,15.17
2023-03-21T03:19:23.719Z,18.20
2023-03-21T03:21:56.222Z,19.30
2023-03-21T03:24:27.704Z,20.50
2023-03-21T03:26:57.095Z,20.17
2023-03-21T03:29:25.125Z,19.20
2023-03-21T03:31:54.596Z,18.73
2023-03-21T03:34:24.020Z,20.03
2023-03-21T03:36:56.290Z,19.97
2023-03-21T03:39:27.913Z,19.33
2023-03-21T03:42:10.024Z,17.27
2023-03-21T03:44:40.374Z,19.10
2023-03-21T03:47:15.163Z,17.53
2023-03-21T03:49:49.538Z,15.23
2023-03-21T03:52:19.632Z,18.40
2023-03-21T03:54:50.216Z,16.90
2023-03-21T03:57:18.752Z,17.60
2023-03-21T03:59:46.871Z,18.10
2023-03-21T04:02:15.049Z,19.03
2023-03-21T04:04:43.627Z,16.87
2023-03-21T04:07:11.864Z,14.50
2023-03-21T04:09:44.480Z,18.40
2023-03-21T04:12:14.257Z,18.13
2023-03-21T04:14:47.218Z,15.37
2023-03-21T04:17:15.700Z,15.80
2023-03-21T04:19:43.657Z,18.27
2023-03-21T04:22:11.971Z,18.57
2023-03-21T04:24:40.605Z,15.40
2023-03-21T04:27:08.494Z,14.73
2023-03-21T04:29:37.913Z,23.43
2023-03-21T04:32:06.357Z,12.60
2023-03-21T04:34:40.253Z,13.47
2023-03-21T04:37:13.614Z,16.80
2023-03-21T04:39:42.812Z,14.50
2023-03-21T04:42:11.261Z,12.43
2023-03-21T04:44:40.792Z,13.90
2023-03-21T04:47:08.596Z,14.67
2023-03-21T04:49:36.565Z,18.40
2023-03-21T04:52:04.670Z,12.90
2023-03-21T04:54:33.812Z,14.73
2023-03-21T04:57:01.751Z,10.90
2023-03-21T04:59:30.127Z,15.27
2023-03-21T05:01:59.616Z,15.60
2023-03-21T05:04:28.337Z,13.13
2023-03-21T05:06:56.817Z,17.30
2023-03-21T05:09:24.724Z,14.80
2023-03-21T05:11:52.745Z,13.67
2023-03-21T05:14:22.171Z,15.80
2023-03-21T05:16:53.799Z,18.07
2023-03-21T05:19:24.637Z,13.63
2023-03-21T05:21:53.102Z,13.87
2023-03-21T05:24:22.337Z,14.33
2023-03-21T05:26:52.837Z,14.67
2023-03-21T05:29:21.818Z,14.20
2023-03-21T05:31:50.171Z,15.43
2023-03-21T05:34:18.108Z,19.60
2023-03-21T05:36:47.998Z,17.80
2023-03-21T05:39:16.096Z,13.07
2023-03-21T05:41:44.284Z,14.17
2023-03-21T05:44:12.300Z,14.63
2023-03-21T05:46:40.319Z,13.30
2023-03-21T05:49:08.229Z,14.73
2023-03-21T05:51:36.254Z,14.40
2023-03-21T05:54:06.887Z,14.17
2023-03-21T05:56:34.774Z,14.87
2023-03-21T05:59:02.924Z,15.83
2023-03-21T06:01:30.986Z,12.40
2023-03-21T06:03:59.401Z,12.43
2023-03-21T06:06:27.444Z,14.47
2023-03-21T06:08:55.332Z,13.53
2023-03-21T06:11:27.684Z,11.43
2023-03-21T06:13:55.744Z,14.40
2023-03-21T06:16:23.770Z,13.90
2023-03-21T06:18:52.176Z,15.13
2023-03-21T06:21:20.745Z,13.20
2023-03-21T06:23:51.916Z,13.60
2023-03-21T06:26:23.059Z,14.23
2023-03-21T06:28:53.048Z,14.63
2023-03-21T06:31:23.034Z,15.93
2023-03-21T06:33:51.732Z,16.30
2023-03-21T06:36:19.801Z,18.33
2023-03-21T06:38:48.828Z,13.90
2023-03-21T06:41:17.154Z,13.67
2023-03-21T06:43:45.393Z,13.70
2023-03-21T06:46:14.863Z,18.37
2023-03-21T06:48:44.721Z,14.07
2023-03-21T06:51:14.100Z,14.50
2023-03-21T06:53:42.160Z,14.60
2023-03-21T06:56:10.917Z,11.67
2023-03-21T06:58:38.884Z,11.83
2023-03-21T07:01:08.587Z,13.20
2023-03-21T07:03:37.959Z,10.27
2023-03-21T07:06:07.719Z,12.20
2023-03-21T07:08:36.153Z,11.33
2023-03-21T07:11:04.138Z,13.40
2023-03-21T07:13:32.527Z,9.20
2023-03-21T07:16:00.747Z,13.17
2023-03-21T07:18:29.308Z,12.00
2023-03-21T07:20:58.846Z,10.63
2023-03-21T07:23:27.465Z,10.40
2023-03-21T07:25:55.939Z,12.33
2023-03-21T07:28:24.154Z,11.20
2023-03-21T07:30:55.822Z,9.00
2023-03-21T07:33:23.682Z,11.43
2023-03-21T07:35:51.556Z,13.30
2023-03-21T07:38:21.176Z,9.13
2023-03-21T07:40:49.205Z,13.10
2023-03-21T07:45:45.728Z,10.73
2023-03-21T07:48:14.255Z,12.77
2023-03-21T07:50:42.124Z,9.43
2023-03-21T07:53:10.043Z,10.30
2023-03-21T07:55:40.238Z,10.10
2023-03-21T07:58:08.361Z,9.43
2023-03-21T08:00:36.210Z,10.70
2023-03-21T08:03:04.348Z,9.50
2023-03-21T08:05:34.795Z,8.37
2023-03-21T08:08:03.253Z,7.03
2023-03-21T08:10:31.345Z,9.20
2023-03-21T08:13:01.148Z,8.50
2023-03-21T08:15:29.261Z,7.70
2023-03-21T08:17:57.536Z,7.33
2023-03-21T08:20:25.558Z,8.10
2023-03-21T08:22:53.469Z,7.00
2023-03-21T08:25:22.071Z,6.57
2023-03-21T08:27:50.349Z,7.10
2023-03-21T08:30:21.154Z,9.40
2023-03-21T08:32:49.219Z,8.07
2023-03-21T08:35:18.647Z,6.63
2023-03-21T08:37:46.946Z,6.07
2023-03-21T08:40:16.347Z,7.00
2023-03-21T08:42:44.981Z,5.57
2023-03-21T08:45:13.315Z,6.18
2023-03-21T08:47:43.093Z,15.77
2023-03-21T08:50:13.555Z,14.10
2023-03-21T08:52:41.526Z,16.17
2023-03-21T08:55:10.810Z,19.63
2023-03-21T08:57:38.807Z,21.80
2023-03-21T09:00:12.287Z,18.77
2023-03-21T09:02:40.729Z,21.33
2023-03-21T09:05:18.596Z,16.93
2023-03-21T09:07:46.733Z,15.00
2023-03-21T09:10:22.768Z,12.73
2023-03-21T09:12:51.240Z,14.83
2023-03-21T09:15:22.276Z,11.50
2023-03-21T09:17:52.964Z,16.33
2023-03-21T09:20:30.658Z,8.77
2023-03-21T09:23:00.138Z,8.77
2023-03-21T09:25:31.833Z,8.97
2023-03-21T09:28:00.374Z,8.57
2023-03-21T09:30:28.654Z,6.90
2023-03-21T09:32:57.072Z,7.50
2023-03-21T09:35:27.077Z,7.47
2023-03-21T09:37:57.575Z,6.40
2023-03-21T09:40:34.207Z,6.70
2023-03-21T09:43:05.997Z,7.53
2023-03-21T09:45:37.210Z,5.83
2023-03-21T09:48:08.084Z,11.80
2023-03-21T09:50:57.300Z,5.47
2023-03-21T09:53:27.243Z,6.63
2023-03-21T09:55:55.354Z,6.87
2023-03-21T09:58:27.167Z,4.27
2023-03-21T10:01:28.289Z,4.30
2023-03-21T10:03:57.064Z,4.17
2023-03-21T10:06:30.616Z,3.87
2023-03-21T10:09:00.457Z,3.53
2023-03-21T10:11:29.748Z,9.50
2023-03-21T10:13:59.229Z,5.80
2023-03-21T10:16:29.775Z,4.30
2023-03-21T10:18:57.856Z,3.40
2023-03-21T10:21:56.455Z,3.70
2023-03-21T10:24:17.428Z,3.20
2023-03-21T10:26:45.582Z,3.43
2023-03-21T10:29:14.400Z,2.83
2023-03-21T10:31:42.479Z,3.20
2023-03-21T10:34:14.882Z,6.50
2023-03-21T10:36:47.825Z,3.40
2023-03-21T10:39:22.366Z,3.60
2023-03-21T10:41:50.552Z,3.30
2023-03-21T10:44:19.165Z,3.67
2023-03-21T10:46:54.747Z,3.43
2023-03-21T10:49:22.854Z,3.07
2023-03-21T10:51:53.034Z,2.73
2023-03-21T10:54:22.065Z,3.13
2023-03-21T10:56:57.994Z,3.73
2023-03-21T10:59:26.759Z,4.13
2023-03-21T11:01:56.646Z,2.97
2023-03-21T11:04:26.351Z,3.23
2023-03-21T11:06:56.993Z,3.23
2023-03-21T11:09:25.558Z,2.93
2023-03-21T11:11:55.396Z,3.17
2023-03-21T11:14:29.121Z,4.07
2023-03-21T11:16:57.806Z,3.87
2023-03-21T11:19:30.830Z,4.00
2023-03-21T11:22:00.745Z,6.13
2023-03-21T11:24:30.379Z,3.40
2023-03-21T11:26:58.401Z,3.40
2023-03-21T11:29:36.514Z,5.30
2023-03-21T11:32:11.627Z,3.97
2023-03-21T11:34:56.278Z,4.10
2023-03-21T11:37:28.665Z,4.00
2023-03-21T11:39:57.865Z,4.50
2023-03-21T11:42:30.293Z,4.93
2023-03-21T11:45:07.067Z,4.10
2023-03-21T11:47:35.139Z,4.70
2023-03-21T11:50:05.272Z,4.80
2023-03-21T11:52:37.896Z,4.10
2023-03-21T11:55:29.860Z,4.43
2023-03-21T11:58:13.991Z,5.60
2023-03-21T12:00:44.606Z,6.87
2023-03-21T12:03:50.772Z,5.27
2023-03-21T12:06:23.904Z,7.80
2023-03-21T12:09:00.131Z,5.03
2023-03-21T12:11:30.928Z,5.93
2023-03-21T12:14:03.553Z,7.50
2023-03-21T12:16:44.106Z,6.43
2023-03-21T12:19:22.099Z,4.90
2023-03-21T12:21:56.014Z,5.67
2023-03-21T12:24:26.308Z,4.77
2023-03-21T12:26:59.160Z,5.77
2023-03-21T12:29:35.596Z,5.97
2023-03-21T12:32:09.252Z,5.37
2023-03-21T12:35:05.511Z,6.10
2023-03-21T12:37:35.767Z,8.33
2023-03-21T12:40:10.806Z,6.00
2023-03-21T12:42:50.042Z,9.80
2023-03-21T12:45:19.632Z,7.57
2023-03-21T12:47:49.777Z,7.03
2023-03-21T12:50:20.923Z,6.00
2023-03-21T12:52:50.107Z,9.93
2023-03-21T12:55:21.485Z,6.90
2023-03-21T12:57:57.183Z,10.63
2023-03-21T13:00:27.681Z,7.87
2023-03-21T13:02:56.749Z,7.87
2023-03-21T13:05:28.887Z,8.20
2023-03-21T13:07:59.924Z,12.00
2023-03-21T13:10:29.494Z,7.00
2023-03-21T13:13:03.065Z,7.83
2023-03-21T13:15:48.454Z,10.67
2023-03-21T13:18:20.452Z,9.53
2023-03-21T13:20:49.906Z,8.23
2023-03-21T13:23:18.784Z,11.73
2023-03-21T13:25:49.169Z,11.63
2023-03-21T13:28:20.739Z,10.53
2023-03-21T13:30:49.990Z,9.17
2023-03-21T13:33:22.046Z,8.33
2023-03-21T13:35:57.829Z,10.83
2023-03-21T13:38:27.201Z,7.30
2023-03-21T13:41:00.832Z,9.90
2023-03-21T13:43:36.839Z,7.70
2023-03-21T13:46:08.687Z,8.20
2023-03-21T13:48:49.372Z,9.23
2023-03-21T13:51:42.734Z,11.10
2023-03-21T13:54:18.870Z,7.90
2023-03-21T13:56:52.854Z,8.40
2023-03-21T13:59:36.306Z,7.90
2023-03-21T14:02:13.527Z,10.33
2023-03-21T14:04:53.978Z,8.00
2023-03-21T14:07:30.558Z,7.10
2023-03-21T14:10:01.183Z,8.50
2023-03-21T14:12:31.601Z,9.03
2023-03-21T14:15:15.795Z,8.60
2023-03-21T14:17:51.250Z,9.50
2023-03-21T14:20:21.994Z,8.57
2023-03-21T14:22:50.172Z,8.60
2023-03-21T14:25:19.600Z,9.80
2023-03-21T14:27:49.709Z,9.30
2023-03-21T14:30:23.126Z,8.93
2023-03-21T14:32:51.122Z,13.10
2023-03-21T14:35:19.390Z,8.80
2023-03-21T14:37:47.735Z,9.10
2023-03-21T14:40:24.097Z,8.47
2023-03-21T14:42:53.785Z,9.70
2023-03-21T14:45:23.062Z,6.63
2023-03-21T14:47:58.648Z,7.70
2023-03-21T14:50:29.815Z,8.53
2023-03-21T14:52:58.305Z,11.27
2023-03-21T14:55:27.503Z,12.23
2023-03-21T14:57:57.508Z,6.30
2023-03-21T15:00:26.763Z,7.70
2023-03-21T15:02:55.079Z,8.73
2023-03-21T15:05:26.051Z,7.07
2023-03-21T15:07:55.217Z,8.40
2023-03-21T15:10:24.358Z,10.00
2023-03-21T15:12:53.331Z,11.00
2023-03-21T15:15:26.004Z,7.40
2023-03-21T15:17:56.035Z,7.80
2023-03-21T15:20:26.351Z,7.23
2023-03-21T15:22:55.336Z,9.60
2023-03-21T15:25:25.286Z,7.00
2023-03-21T15:27:53.634Z,7.30
2023-03-21T15:30:24.958Z,9.10
2023-03-21T15:32:55.724Z,10.67
2023-03-21T15:35:26.317Z,9.83
2023-03-21T15:37:55.812Z,7.60
2023-03-21T15:40:25.127Z,9.03
2023-03-21T15:42:53.315Z,6.80
2023-03-21T15:45:29.357Z,7.47
2023-03-21T15:48:05.593Z,12.03
2023-03-21T15:50:35.731Z,9.43
2023-03-21T15:53:05.814Z,8.70
2023-03-21T15:55:37.147Z,10.10
2023-03-21T15:58:07.446Z,7.83
2023-03-21T16:00:40.840Z,7.30
2023-03-21T16:03:11.696Z,18.03
2023-03-21T16:05:40.175Z,11.60
2023-03-21T16:08:18.718Z,8.67
2023-03-21T16:10:47.254Z,10.43
2023-03-21T16:13:15.273Z,8.70
2023-03-21T16:15:44.712Z,10.13
2023-03-21T16:18:14.751Z,7.33
2023-03-21T16:20:45.021Z,8.40
2023-03-21T16:23:12.997Z,8.80
2023-03-21T16:25:40.879Z,7.30
2023-03-21T16:28:11.508Z,8.47
2023-03-21T16:30:40.067Z,10.47
2023-03-21T16:33:11.477Z,10.00
2023-03-21T16:35:39.357Z,7.00
2023-03-21T16:38:07.240Z,8.10
2023-03-21T16:40:37.365Z,8.40
2023-03-21T16:43:05.468Z,7.20
2023-03-21T16:45:33.499Z,9.40
2023-03-21T16:48:01.802Z,7.90
2023-03-21T16:50:33.137Z,10.40
2023-03-21T16:53:01.298Z,12.63
2023-03-21T16:55:29.854Z,7.73
2023-03-21T16:57:57.964Z,7.37
2023-03-21T17:00:28.077Z,7.30
2023-03-21T17:02:56.513Z,9.17
2023-03-21T17:05:26.280Z,7.20
2023-03-21T17:07:56.074Z,6.63
2023-03-21T17:10:25.346Z,7.20
2023-03-21T17:12:53.747Z,6.70
2023-03-21T17:15:23.068Z,8.17
2023-03-21T17:17:52.167Z,9.33
2023-03-21T17:20:25.268Z,7.50
2023-03-21T17:22:55.361Z,8.77
2023-03-21T17:25:23.671Z,8.00
2023-03-21T17:27:53.455Z,6.40
2023-03-21T17:30:23.664Z,6.87
2023-03-21T17:32:52.359Z,8.60
2023-03-21T17:35:20.449Z,8.23
2023-03-21T17:37:50.517Z,6.63
2023-03-21T17:40:22.290Z,8.87
2023-03-21T17:42:50.547Z,6.40
2023-03-21T17:45:18.993Z,7.97
2023-03-21T17:47:47.101Z,6.90
2023-03-21T17:50:16.967Z,7.80
2023-03-21T17:52:45.108Z,7.70
2023-03-21T17:55:13.500Z,5.90
2023-03-21T17:57:42.896Z,7.37
2023-03-21T18:00:15.781Z,7.60
2023-03-21T18:02:43.740Z,6.70
2023-03-21T18:05:12.427Z,8.83
2023-03-21T18:10:29.453Z,9.57
2023-03-21T18:12:58.976Z,7.70
2023-03-21T18:15:30.097Z,5.53
2023-03-21T18:17:59.137Z,6.40
2023-03-21T18:20:49.755Z,8.77
2023-03-21T18:23:18.960Z,8.43
2023-03-21T18:25:50.056Z,6.63
2023-03-21T18:28:21.231Z,10.60
2023-03-21T18:31:07.838Z,9.70
2023-03-21T18:33:38.355Z,9.20
2023-03-21T18:36:07.848Z,7.63
2023-03-21T18:38:36.489Z,9.40
2023-03-21T18:41:04.473Z,6.67
2023-03-21T18:44:02.869Z,9.40
2023-03-21T18:46:23.027Z,6.80
2023-03-21T18:48:51.989Z,7.67
2023-03-21T18:51:19.986Z,6.40
2023-03-21T18:53:48.289Z,7.43
2023-03-21T18:57:06.011Z,6.10
2023-03-21T18:59:06.291Z,7.63
2023-03-21T19:01:34.373Z,7.97
2023-03-21T19:04:21.481Z,7.57
2023-03-21T19:06:51.564Z,7.43
2023-03-21T19:09:20.044Z,5.90
2023-03-21T19:11:48.289Z,6.60
2023-03-21T19:14:18.786Z,5.60
2023-03-21T19:17:27.054Z,8.87
2023-03-21T19:19:35.967Z,5.40
2023-03-21T19:22:04.087Z,9.80
2023-03-21T19:24:32.740Z,7.57
2023-03-21T19:27:01.001Z,8.50
2023-03-21T19:29:31.364Z,6.03
2023-03-21T19:31:59.588Z,6.20
2023-03-21T19:34:28.335Z,6.43
2023-03-21T19:36:57.487Z,10.23
2023-03-21T19:39:26.018Z,6.33
2023-03-21T19:42:02.945Z,8.10
2023-03-21T19:44:44.750Z,6.17
2023-03-21T19:47:14.861Z,6.17
2023-03-21T19:50:30.712Z,8.63
2023-03-21T19:52:37.839Z,5.57
2023-03-21T19:55:07.203Z,5.07
2023-03-21T19:57:35.411Z,7.63
2023-03-21T20:00:06.008Z,5.50
2023-03-21T20:02:36.330Z,6.27
2023-03-21T20:05:06.018Z,6.73
2023-03-21T20:07:34.026Z,12.17
2023-03-21T20:10:02.457Z,8.40
2023-03-21T20:12:31.251Z,9.13
2023-03-21T20:15:12.064Z,9.53
2023-03-21T20:17:45.516Z,6.67
2023-03-21T20:20:17.555Z,5.60
2023-03-21T20:25:34.459Z,5.67
2023-03-21T20:28:25.073Z,6.47
2023-03-21T20:30:53.453Z,5.73
2023-03-21T20:33:24.366Z,5.30
2023-03-21T20:38:45.717Z,7.07
2023-03-21T20:41:13.719Z,5.67
2023-03-21T20:46:30.178Z,5.90
2023-03-21T20:48:59.824Z,5.73
2023-03-21T20:54:16.029Z,5.10
2023-03-21T20:56:44.443Z,5.30
2023-03-21T20:59:20.797Z,5.97
2023-03-21T21:01:52.911Z,5.50
2023-03-21T21:04:23.057Z,5.90
2023-03-21T21:06:55.461Z,6.97
2023-03-21T21:09:23.442Z,5.90
2023-03-21T21:12:09.724Z,6.40
2023-03-21T21:14:38.211Z,5.70
2023-03-21T21:17:23.898Z,8.07
2023-03-21T21:19:55.671Z,5.87
2023-03-21T21:22:23.851Z,7.33
2023-03-21T21:24:51.937Z,7.17
2023-03-21T21:27:20.406Z,5.57
2023-03-21T21:29:50.038Z,8.63
2023-03-21T21:32:19.729Z,6.60
2023-03-21T21:34:48.478Z,5.63
2023-03-21T21:37:17.968Z,9.07
2023-03-21T21:39:46.782Z,7.40
2023-03-21T21:42:14.771Z,7.13
2023-03-21T21:44:45.124Z,5.93
2023-03-21T21:47:13.495Z,7.60
2023-03-21T21:49:41.570Z,7.50
2023-03-21T21:52:13.644Z,6.73
2023-03-21T21:54:46.163Z,7.20
2023-03-21T21:57:15.283Z,8.60
2023-03-21T21:59:43.349Z,5.90
2023-03-21T22:02:13.953Z,15.10
2023-03-21T22:04:42.161Z,6.33
2023-03-21T22:07:14.362Z,7.03
2023-03-21T22:09:44.779Z,8.57
2023-03-21T22:12:12.815Z,9.50
2023-03-21T22:14:41.019Z,7.50
2023-03-21T22:17:08.975Z,8.03
2023-03-21T22:19:39.083Z,11.83
2023-03-21T22:22:08.164Z,8.93
2023-03-21T22:24:37.495Z,7.10
2023-03-21T22:27:07.104Z,8.17
2023-03-21T22:29:35.166Z,6.37
2023-03-21T22:32:03.289Z,8.10
2023-03-21T22:34:31.526Z,8.10
2023-03-21T22:36:59.891Z,8.43
2023-03-21T22:39:28.676Z,7.37
2023-03-21T22:41:58.259Z,5.90
2023-03-21T22:44:28.204Z,13.40
2023-03-21T22:46:56.387Z,7.30
2023-03-21T22:49:24.344Z,6.70
2023-03-21T22:51:52.691Z,13.63
2023-03-21T22:54:20.764Z,5.80
2023-03-21T22:56:49.169Z,6.30
2023-03-21T22:59:17.234Z,6.33
2023-03-21T23:01:46.701Z,6.00
2023-03-21T23:04:15.030Z,7.97
2023-03-21T23:06:43.099Z,9.30
2023-03-21T23:09:11.138Z,6.00
2023-03-21T23:11:40.892Z,7.87
2023-03-21T23:14:10.319Z,7.00
2023-03-21T23:16:38.755Z,7.43
2023-03-21T23:19:08.990Z,10.83
2023-03-21T23:21:38.307Z,6.80
2023-03-21T23:24:06.872Z,6.63
2023-03-21T23:26:35.271Z,8.23
2023-03-21T23:29:03.403Z,7.30
2023-03-21T23:31:32.949Z,6.80
2023-03-21T23:34:01.440Z,8.80
2023-03-21T23:36:31.350Z,9.40
2023-03-21T23:38:59.362Z,6.07
2023-03-21T23:41:27.789Z,5.03
2023-03-21T23:43:55.786Z,8.03
2023-03-21T23:46:23.841Z,6.53
2023-03-21T23:48:51.811Z,5.00
2023-03-21T23:51:20.404Z,5.20
2023-03-21T23:53:49.738Z,7.33
2023-03-21T23:56:18.742Z,9.43
2023-03-21T23:58:46.734Z,8.30
